createdAt,value
2022-11-29T00:02:21.294Z,20.10
2022-11-29T00:04:54.168Z,20.10
2022-11-29T00:07:27.250Z,20.10
2022-11-29T00:09:59.988Z,20.10
2022-11-29T00:12:32.952Z,20.10
2022-11-29T00:15:05.819Z,20.20
2022-11-29T00:17:39.514Z,20.20
2022-11-29T00:20:17.288Z,20.20
2022-11-29T00:22:50.266Z,20.30
2022-11-29T00:25:23.499Z,20.30
2022-11-29T00:27:56.466Z,20.30
2022-11-29T00:30:29.246Z,20.30
2022-11-29T00:33:02.083Z,20.30
2022-11-29T00:35:35.451Z,20.30
2022-11-29T00:38:08.426Z,20.30
2022-11-29T00:40:41.393Z,20.20
2022-11-29T00:43:14.163Z,20.20
2022-11-29T00:45:47.412Z,20.10
2022-11-29T00:48:20.760Z,20.10
2022-11-29T00:50:54.224Z,20.10
2022-11-29T00:53:27.116Z,20.00
2022-11-29T00:56:00.157Z,19.90
2022-11-29T00:58:33.460Z,19.80
2022-11-29T01:01:06.336Z,19.80
2022-11-29T01:03:39.314Z,19.80
2022-11-29T01:06:14.128Z,19.80
2022-11-29T01:08:48.598Z,19.80
2022-11-29T01:11:23.513Z,19.70
2022-11-29T01:13:58.090Z,19.70
2022-11-29T01:16:32.141Z,19.70
2022-11-29T01:19:05.361Z,19.70
2022-11-29T01:21:43.103Z,19.70
2022-11-29T01:24:16.008Z,19.70
2022-11-29T01:26:49.239Z,19.70
2022-11-29T01:29:22.225Z,19.70
2022-11-29T01:31:55.144Z,19.70
2022-11-29T01:34:28.189Z,19.70
2022-11-29T01:37:01.210Z,19.70
2022-11-29T01:39:34.121Z,19.60
2022-11-29T01:42:07.186Z,19.60
2022-11-29T01:44:42.654Z,19.60
2022-11-29T01:47:16.207Z,19.50
2022-11-29T01:49:51.078Z,19.50
2022-11-29T01:52:26.017Z,19.50
2022-11-29T01:55:00.153Z,19.40
2022-11-29T01:57:34.627Z,19.40
2022-11-29T02:00:10.628Z,19.40
2022-11-29T02:03:15.780Z,19.40
2022-11-29T02:05:51.230Z,19.30
2022-11-29T02:08:26.066Z,19.30
2022-11-29T02:11:09.393Z,19.30
2022-11-29T02:13:53.386Z,19.30
2022-11-29T02:16:37.219Z,19.30
2022-11-29T02:19:12.417Z,19.20
2022-11-29T02:22:02.016Z,19.20
2022-11-29T02:24:46.200Z,19.20
2022-11-29T02:27:27.053Z,19.20
2022-11-29T02:30:10.804Z,19.20
2022-11-29T02:32:57.654Z,19.20
2022-11-29T02:35:47.454Z,19.20
2022-11-29T02:38:44.934Z,19.20
2022-11-29T02:41:25.987Z,19.10
2022-11-29T02:44:18.939Z,19.20
2022-11-29T02:46:56.551Z,19.20
2022-11-29T02:49:46.367Z,19.10
2022-11-29T02:52:21.977Z,19.10
2022-11-29T02:55:15.523Z,19.10
2022-11-29T02:58:14.564Z,19.20
2022-11-29T03:00:49.403Z,19.10
2022-11-29T03:03:30.097Z,19.10
2022-11-29T03:06:08.100Z,19.10
2022-11-29T03:08:51.342Z,19.10
2022-11-29T03:11:29.580Z,19.10
2022-11-29T03:14:16.609Z,19.10
2022-11-29T03:16:55.966Z,19.10
2022-11-29T03:19:56.087Z,19.10
2022-11-29T03:22:49.346Z,19.10
2022-11-29T03:25:27.544Z,19.10
2022-11-29T03:28:08.812Z,19.10
2022-11-29T03:30:43.667Z,19.10
2022-11-29T03:33:27.579Z,19.10
2022-11-29T03:36:13.947Z,19.10
2022-11-29T03:38:49.154Z,19.10
2022-11-29T03:41:52.876Z,19.10
2022-11-29T03:44:27.828Z,19.10
2022-11-29T03:47:18.314Z,19.10
2022-11-29T03:49:58.988Z,19.10
2022-11-29T03:52:52.957Z,19.10
2022-11-29T03:55:30.410Z,19.20
2022-11-29T03:58:23.312Z,19.20
2022-11-29T04:00:58.646Z,19.20
2022-11-29T04:04:06.660Z,19.20
2022-11-29T04:07:10.422Z,19.10
2022-11-29T04:09:57.759Z,19.10
2022-11-29T04:12:49.364Z,19.10
2022-11-29T04:15:54.656Z,19.10
2022-11-29T04:18:50.377Z,19.10
2022-11-29T04:21:25.089Z,19.10
2022-11-29T04:24:27.059Z,19.10
2022-11-29T04:27:18.668Z,19.10
2022-11-29T04:29:56.796Z,19.10
2022-11-29T04:32:41.605Z,19.10
2022-11-29T04:35:39.348Z,19.10
2022-11-29T04:38:39.682Z,19.10
2022-11-29T04:41:33.873Z,19.10
2022-11-29T04:44:40.717Z,19.10
2022-11-29T04:47:41.332Z,19.10
2022-11-29T04:50:32.746Z,19.10
2022-11-29T04:53:29.208Z,19.10
2022-11-29T04:56:04.365Z,19.10
2022-11-29T04:59:09.046Z,19.00
2022-11-29T05:01:44.192Z,19.00
2022-11-29T05:04:24.563Z,19.10
2022-11-29T05:07:05.823Z,19.10
2022-11-29T05:09:43.565Z,19.00
2022-11-29T05:12:24.517Z,19.00
2022-11-29T05:15:32.796Z,19.00
2022-11-29T05:18:14.132Z,19.00
2022-11-29T05:21:01.568Z,19.00
2022-11-29T05:23:48.404Z,19.00
2022-11-29T05:26:26.215Z,18.90
2022-11-29T05:29:19.693Z,18.90
2022-11-29T05:32:01.035Z,18.90
2022-11-29T05:34:38.483Z,18.80
2022-11-29T05:37:25.545Z,18.80
2022-11-29T05:40:00.166Z,18.80
2022-11-29T05:42:46.323Z,18.80
2022-11-29T05:45:33.365Z,18.80
2022-11-29T05:48:11.188Z,18.70
2022-11-29T05:50:49.019Z,18.80
2022-11-29T05:53:33.327Z,18.70
2022-11-29T05:56:26.708Z,18.70
2022-11-29T05:59:07.836Z,18.70
2022-11-29T06:01:48.598Z,18.70
2022-11-29T06:04:47.176Z,18.70
2022-11-29T06:07:43.211Z,18.70
2022-11-29T06:10:19.477Z,18.70
2022-11-29T06:13:12.815Z,18.70
2022-11-29T06:15:50.930Z,18.70
2022-11-29T06:18:31.757Z,18.70
2022-11-29T06:21:31.848Z,18.70
2022-11-29T06:24:23.325Z,18.70
2022-11-29T06:27:12.479Z,18.70
2022-11-29T06:30:02.150Z,18.60
2022-11-29T06:32:42.791Z,18.60
2022-11-29T06:35:17.956Z,18.60
2022-11-29T06:37:59.122Z,18.60
2022-11-29T06:40:32.105Z,18.60
2022-11-29T06:43:05.633Z,18.70
2022-11-29T06:45:39.276Z,18.60
2022-11-29T06:48:13.535Z,18.60
2022-11-29T06:51:10.845Z,18.60
2022-11-29T06:54:03.738Z,18.60
2022-11-29T06:56:57.891Z,18.60
2022-11-29T06:59:41.752Z,18.60
2022-11-29T07:02:20.082Z,18.60
2022-11-29T07:05:13.347Z,18.70
2022-11-29T07:07:52.667Z,18.70
2022-11-29T07:10:26.341Z,18.70
2022-11-29T07:12:59.762Z,18.70
2022-11-29T07:15:32.730Z,18.70
2022-11-29T07:18:13.454Z,18.70
2022-11-29T07:21:00.064Z,18.70
2022-11-29T07:24:07.012Z,18.70
2022-11-29T07:26:41.878Z,18.60
2022-11-29T07:32:39.079Z,18.60
2022-11-29T07:35:20.381Z,18.60
2022-11-29T07:37:55.371Z,18.70
2022-11-29T07:40:37.338Z,18.70
2022-11-29T07:43:21.623Z,18.70
2022-11-29T07:45:55.892Z,18.70
2022-11-29T07:48:29.024Z,18.70
2022-11-29T07:51:02.078Z,18.70
2022-11-29T07:53:35.143Z,18.70
2022-11-29T07:56:08.431Z,18.70
2022-11-29T07:58:41.660Z,18.70
2022-11-29T08:01:14.648Z,18.70
2022-11-29T08:03:47.503Z,18.70
2022-11-29T08:06:21.957Z,18.70
2022-11-29T08:08:54.846Z,18.70
2022-11-29T08:11:27.808Z,18.80
2022-11-29T08:14:04.685Z,18.70
2022-11-29T08:16:37.748Z,18.70
2022-11-29T08:19:10.952Z,18.70
2022-11-29T08:21:45.145Z,18.70
2022-11-29T08:24:18.036Z,18.70
2022-11-29T08:26:51.412Z,18.70
2022-11-29T08:29:24.280Z,18.70
2022-11-29T08:31:57.722Z,18.70
2022-11-29T08:34:30.645Z,18.70
2022-11-29T08:37:03.526Z,18.70
2022-11-29T08:39:36.659Z,18.60
2022-11-29T08:42:09.625Z,18.60
2022-11-29T08:44:43.098Z,18.60
2022-11-29T08:47:34.115Z,18.60
2022-11-29T08:50:12.215Z,18.50
2022-11-29T08:53:04.516Z,18.50
2022-11-29T08:55:39.659Z,18.50
2022-11-29T08:58:14.744Z,18.50
2022-11-29T09:00:48.917Z,18.50
2022-11-29T09:03:39.512Z,18.40
2022-11-29T09:06:17.484Z,18.30
2022-11-29T09:08:50.444Z,18.20
2022-11-29T09:11:24.626Z,18.10
2022-11-29T09:13:59.342Z,18.10
2022-11-29T09:16:33.884Z,18.10
2022-11-29T09:19:07.913Z,18.00
2022-11-29T09:21:41.155Z,18.00
2022-11-29T09:24:14.404Z,17.90
2022-11-29T09:26:48.586Z,17.90
2022-11-29T09:29:22.006Z,17.90
2022-11-29T09:31:55.092Z,17.90
2022-11-29T09:34:28.233Z,17.90
2022-11-29T09:37:06.392Z,17.90
2022-11-29T09:39:39.433Z,17.90
2022-11-29T09:42:17.846Z,17.90
2022-11-29T09:45:13.634Z,17.90
2022-11-29T09:48:03.578Z,17.90
2022-11-29T09:50:47.366Z,17.90
2022-11-29T09:53:28.621Z,17.90
2022-11-29T09:56:15.546Z,17.90
2022-11-29T09:59:08.322Z,17.90
2022-11-29T10:01:43.640Z,17.90
2022-11-29T10:04:21.575Z,17.90
2022-11-29T10:06:56.480Z,17.90
2022-11-29T10:09:46.803Z,17.90
2022-11-29T10:12:39.659Z,17.90
2022-11-29T10:15:26.303Z,17.90
2022-11-29T10:18:04.151Z,17.90
2022-11-29T10:20:43.524Z,17.90
2022-11-29T10:23:35.317Z,17.90
2022-11-29T10:26:10.311Z,17.80
2022-11-29T10:28:45.545Z,17.90
2022-11-29T10:31:32.227Z,17.90
2022-11-29T10:34:07.601Z,17.90
2022-11-29T10:36:48.184Z,17.90
2022-11-29T10:39:35.375Z,17.80
2022-11-29T10:42:10.706Z,17.90
2022-11-29T10:44:44.224Z,17.80
2022-11-29T10:47:17.473Z,17.90
2022-11-29T10:49:50.404Z,17.80
2022-11-29T10:52:27.469Z,17.80
2022-11-29T10:55:02.012Z,17.80
2022-11-29T10:57:34.987Z,17.80
2022-11-29T11:00:12.941Z,17.70
2022-11-29T11:02:46.370Z,17.70
2022-11-29T11:05:20.833Z,17.70
2022-11-29T11:07:55.901Z,17.70
2022-11-29T11:10:33.196Z,17.70
2022-11-29T11:13:08.352Z,17.70
2022-11-29T11:15:42.111Z,17.70
2022-11-29T11:18:17.285Z,17.70
2022-11-29T11:20:51.962Z,17.70
2022-11-29T11:23:29.985Z,17.70
2022-11-29T11:26:11.709Z,17.70
2022-11-29T11:28:52.275Z,17.70
2022-11-29T11:31:40.021Z,17.70
2022-11-29T11:34:31.799Z,17.70
2022-11-29T11:37:26.551Z,17.70
2022-11-29T11:40:02.132Z,17.70
2022-11-29T11:42:40.412Z,17.80
2022-11-29T11:45:18.149Z,17.80
2022-11-29T11:47:58.943Z,17.80
2022-11-29T11:50:34.231Z,17.80
2022-11-29T11:53:09.073Z,17.80
2022-11-29T11:55:46.826Z,17.80
2022-11-29T11:58:22.121Z,17.80
2022-11-29T12:01:03.973Z,17.90
2022-11-29T12:03:50.119Z,17.90
2022-11-29T12:06:43.248Z,17.90
2022-11-29T12:09:36.906Z,17.90
2022-11-29T12:12:20.490Z,17.90
2022-11-29T12:15:10.939Z,17.90
2022-11-29T12:17:52.543Z,17.90
2022-11-29T12:20:34.093Z,17.90
2022-11-29T12:23:21.447Z,17.90
2022-11-29T12:26:48.841Z,17.90
2022-11-29T12:28:55.059Z,17.90
2022-11-29T12:31:49.515Z,17.90
2022-11-29T12:34:27.086Z,17.90
2022-11-29T12:37:11.389Z,17.90
2022-11-29T12:39:59.967Z,17.90
2022-11-29T12:42:53.207Z,17.90
2022-11-29T12:45:37.786Z,17.90
2022-11-29T12:48:24.591Z,17.90
2022-11-29T12:51:07.944Z,17.90
2022-11-29T12:53:43.014Z,17.90
2022-11-29T12:56:30.106Z,17.90
2022-11-29T12:59:21.542Z,17.90
2022-11-29T13:02:08.563Z,17.90
2022-11-29T13:04:47.450Z,17.90
2022-11-29T13:07:40.812Z,17.90
2022-11-29T13:10:40.722Z,17.90
2022-11-29T13:13:22.015Z,17.90
2022-11-29T13:16:22.953Z,17.90
2022-11-29T13:18:59.434Z,17.90
2022-11-29T13:21:34.653Z,17.90
2022-11-29T13:24:12.899Z,17.90
2022-11-29T13:26:50.931Z,17.90
2022-11-29T13:29:25.187Z,17.90
2022-11-29T13:31:58.567Z,17.90
2022-11-29T13:34:34.050Z,17.90
2022-11-29T13:37:23.554Z,17.90
2022-11-29T13:40:04.445Z,17.90
2022-11-29T13:42:39.281Z,18.00
2022-11-29T13:45:26.178Z,18.00
2022-11-29T13:48:00.945Z,18.00
2022-11-29T13:50:44.783Z,18.00
2022-11-29T13:53:22.734Z,18.00
2022-11-29T13:56:03.613Z,18.00
2022-11-29T13:58:38.687Z,18.00
2022-11-29T14:01:13.936Z,18.00
2022-11-29T14:03:49.758Z,18.00
2022-11-29T14:06:28.024Z,18.00
2022-11-29T14:09:18.416Z,18.00
2022-11-29T14:11:54.573Z,18.00
2022-11-29T14:14:35.566Z,18.00
2022-11-29T14:17:13.942Z,18.00
2022-11-29T14:19:47.002Z,18.00
2022-11-29T14:22:24.545Z,18.10
2022-11-29T14:25:27.885Z,18.10
2022-11-29T14:27:44.522Z,18.10
2022-11-29T14:30:50.081Z,18.10
2022-11-29T14:33:30.961Z,18.10
2022-11-29T14:36:12.307Z,18.10
2022-11-29T14:38:50.288Z,18.10
2022-11-29T14:41:34.170Z,18.10
2022-11-29T14:44:12.166Z,18.10
2022-11-29T14:46:45.088Z,18.10
2022-11-29T14:49:26.592Z,18.20
2022-11-29T14:52:19.264Z,18.20
2022-11-29T14:55:12.729Z,18.20
2022-11-29T14:58:08.592Z,18.20
2022-11-29T15:00:55.611Z,18.20
2022-11-29T15:03:42.598Z,18.20
2022-11-29T15:06:21.006Z,18.20
2022-11-29T15:09:01.238Z,18.20
2022-11-29T15:11:48.025Z,18.20
2022-11-29T15:14:58.051Z,18.20
2022-11-29T15:17:47.846Z,18.20
2022-11-29T15:20:42.157Z,18.20
2022-11-29T15:23:17.183Z,18.10
2022-11-29T15:25:55.397Z,18.20
2022-11-29T15:28:30.207Z,18.20
2022-11-29T15:31:11.707Z,18.20
2022-11-29T15:33:49.892Z,18.20
2022-11-29T15:36:28.290Z,18.20
2022-11-29T15:39:01.675Z,18.20
2022-11-29T15:41:36.285Z,18.20
2022-11-29T15:44:13.424Z,18.20
2022-11-29T15:46:46.218Z,18.20
2022-11-29T15:49:33.405Z,18.20
2022-11-29T15:52:08.156Z,18.30
2022-11-29T15:54:42.793Z,18.30
2022-11-29T15:57:23.342Z,18.30
2022-11-29T16:00:01.059Z,18.30
2022-11-29T16:02:39.043Z,18.30
2022-11-29T16:05:26.232Z,18.30
2022-11-29T16:08:01.358Z,18.30
2022-11-29T16:10:49.363Z,18.30
2022-11-29T16:13:38.048Z,18.30
2022-11-29T16:16:21.303Z,18.20
2022-11-29T16:18:54.437Z,18.30
2022-11-29T16:21:35.476Z,18.30
2022-11-29T16:24:24.402Z,18.30
2022-11-29T16:26:57.956Z,18.30
2022-11-29T16:29:32.910Z,18.30
2022-11-29T16:32:07.851Z,18.30
2022-11-29T16:34:42.065Z,18.30
2022-11-29T16:37:26.079Z,18.30
2022-11-29T16:40:01.323Z,18.30
2022-11-29T16:42:36.087Z,18.30
2022-11-29T16:45:11.170Z,18.30
2022-11-29T16:47:59.025Z,18.30
2022-11-29T16:50:36.926Z,18.30
2022-11-29T16:53:37.776Z,18.30
2022-11-29T16:56:15.392Z,18.20
2022-11-29T16:59:25.933Z,18.20
2022-11-29T17:01:31.861Z,18.20
2022-11-29T17:04:04.906Z,18.20
2022-11-29T17:06:38.775Z,18.20
2022-11-29T17:09:13.150Z,18.20
2022-11-29T17:11:46.698Z,18.30
2022-11-29T17:14:23.842Z,18.30
2022-11-29T17:16:56.912Z,18.20
2022-11-29T17:19:31.161Z,18.20
2022-11-29T17:22:04.354Z,18.20
2022-11-29T17:24:37.669Z,18.20
2022-11-29T17:27:10.829Z,18.20
2022-11-29T17:29:46.596Z,18.20
2022-11-29T17:32:24.901Z,18.20
2022-11-29T17:34:53.772Z,18.20
2022-11-29T17:37:26.993Z,18.20
2022-11-29T17:39:59.890Z,18.20
2022-11-29T17:42:32.908Z,18.20
2022-11-29T17:45:06.077Z,18.20
2022-11-29T17:47:39.027Z,18.20
2022-11-29T17:50:12.550Z,18.20
2022-11-29T17:52:45.888Z,18.20
2022-11-29T17:55:20.788Z,18.20
2022-11-29T17:57:54.104Z,18.30
2022-11-29T18:00:31.433Z,18.30
2022-11-29T18:03:05.771Z,18.30
2022-11-29T18:05:39.149Z,18.30
2022-11-29T18:08:12.010Z,18.30
2022-11-29T18:10:45.063Z,18.30
2022-11-29T18:13:18.047Z,18.30
2022-11-29T18:15:51.148Z,18.30
2022-11-29T18:18:24.152Z,18.30
2022-11-29T18:20:58.177Z,18.30
2022-11-29T18:23:34.680Z,18.30
2022-11-29T18:26:12.666Z,18.30
2022-11-29T18:28:47.009Z,18.30
2022-11-29T18:31:21.309Z,18.40
2022-11-29T18:33:55.815Z,18.40
2022-11-29T18:36:34.033Z,18.40
2022-11-29T18:39:09.461Z,18.40
2022-11-29T18:41:43.804Z,18.40
2022-11-29T18:44:18.431Z,18.40
2022-11-29T18:46:51.550Z,18.40
2022-11-29T18:49:24.457Z,18.40
2022-11-29T18:51:57.722Z,18.50
2022-11-29T18:54:31.021Z,18.50
2022-11-29T18:57:04.106Z,18.50
2022-11-29T18:59:37.454Z,18.50
2022-11-29T19:02:10.350Z,18.50
2022-11-29T19:04:43.539Z,18.50
2022-11-29T19:07:16.765Z,18.60
2022-11-29T19:09:50.433Z,18.60
2022-11-29T19:12:23.554Z,18.60
2022-11-29T19:14:56.707Z,18.60
2022-11-29T19:17:29.933Z,18.70
2022-11-29T19:20:02.836Z,18.70
2022-11-29T19:22:35.891Z,18.70
2022-11-29T19:25:09.276Z,18.70
2022-11-29T19:27:42.246Z,18.70
2022-11-29T19:30:18.139Z,18.70
2022-11-29T19:32:51.017Z,18.70
2022-11-29T19:35:24.082Z,18.80
2022-11-29T19:37:57.777Z,18.80
2022-11-29T19:40:30.839Z,18.80
2022-11-29T19:43:04.109Z,18.80
2022-11-29T19:45:37.012Z,18.80
2022-11-29T19:48:10.237Z,18.80
2022-11-29T19:50:43.188Z,18.80
2022-11-29T19:53:16.255Z,18.80
2022-11-29T19:55:49.207Z,18.80
2022-11-29T19:58:22.813Z,18.80
2022-11-29T20:00:56.101Z,18.80
2022-11-29T20:03:28.998Z,18.90
2022-11-29T20:06:01.838Z,18.90
2022-11-29T20:08:34.712Z,18.90
2022-11-29T20:11:12.741Z,18.90
2022-11-29T20:13:47.119Z,19.00
2022-11-29T20:16:21.131Z,19.00
2022-11-29T20:18:54.931Z,19.10
2022-11-29T20:21:32.511Z,19.10
2022-11-29T20:24:10.517Z,19.10
2022-11-29T20:26:45.025Z,19.20
2022-11-29T20:29:18.372Z,19.30
2022-11-29T20:31:51.551Z,19.30
2022-11-29T20:34:24.958Z,19.40
2022-11-29T20:37:11.684Z,19.40
2022-11-29T20:39:55.330Z,19.50
2022-11-29T20:42:36.753Z,19.50
2022-11-29T20:45:11.518Z,19.50
2022-11-29T20:47:59.835Z,19.60
2022-11-29T20:50:34.716Z,19.70
2022-11-29T20:53:27.867Z,19.70
2022-11-29T20:56:00.644Z,19.70
2022-11-29T20:58:33.804Z,19.80
2022-11-29T21:01:08.026Z,19.80
2022-11-29T21:03:41.365Z,19.80
2022-11-29T21:06:16.662Z,19.80
2022-11-29T21:08:49.522Z,19.90
2022-11-29T21:11:24.158Z,19.90
2022-11-29T21:13:59.340Z,20.00
2022-11-29T21:16:32.969Z,20.00
2022-11-29T21:19:06.958Z,20.00
2022-11-29T21:21:47.890Z,20.00
2022-11-29T21:24:50.690Z,19.90
2022-11-29T21:27:26.025Z,19.90
2022-11-29T21:29:59.532Z,19.90
2022-11-29T21:32:32.710Z,19.90
2022-11-29T21:35:05.655Z,19.90
2022-11-29T21:37:39.444Z,20.00
2022-11-29T21:40:13.662Z,20.00
2022-11-29T21:42:46.579Z,20.10
2022-11-29T21:45:23.671Z,20.10
2022-11-29T21:47:56.650Z,20.10
2022-11-29T21:50:29.652Z,20.10
2022-11-29T21:53:02.653Z,20.10
2022-11-29T21:55:35.695Z,20.20
2022-11-29T21:58:08.526Z,20.10
2022-11-29T22:00:41.289Z,20.10
2022-11-29T22:03:14.083Z,20.10
2022-11-29T22:05:46.895Z,20.10
2022-11-29T22:08:22.223Z,20.10
2022-11-29T22:10:57.301Z,20.10
2022-11-29T22:13:30.532Z,20.10
2022-11-29T22:16:15.646Z,20.10
2022-11-29T22:18:48.546Z,20.10
2022-11-29T22:21:21.498Z,20.20
2022-11-29T22:23:55.285Z,20.10
2022-11-29T22:26:28.177Z,20.10
2022-11-29T22:29:00.796Z,20.10
2022-11-29T22:31:34.254Z,20.20
2022-11-29T22:34:08.414Z,20.20
2022-11-29T22:36:42.244Z,20.30
2022-11-29T22:39:15.103Z,20.30
2022-11-29T22:41:53.938Z,20.30
2022-11-29T22:44:23.062Z,20.40
2022-11-29T22:46:56.047Z,20.50
2022-11-29T22:49:29.443Z,20.50
2022-11-29T22:52:02.307Z,20.60
2022-11-29T22:54:35.236Z,20.60
2022-11-29T22:57:08.137Z,20.70
2022-11-29T22:59:41.061Z,20.70
2022-11-29T23:02:14.280Z,20.80
2022-11-29T23:04:47.379Z,20.80
2022-11-29T23:07:20.557Z,20.80
2022-11-29T23:09:54.180Z,20.80
2022-11-29T23:12:27.592Z,20.80
2022-11-29T23:15:00.855Z,20.80
2022-11-29T23:17:33.806Z,20.80
2022-11-29T23:20:06.900Z,20.80
2022-11-29T23:22:41.261Z,20.70
2022-11-29T23:25:14.098Z,20.70
2022-11-29T23:27:47.196Z,20.60
2022-11-29T23:30:20.138Z,20.60
2022-11-29T23:32:53.043Z,20.60
2022-11-29T23:35:25.889Z,20.60
2022-11-29T23:37:58.641Z,20.50
2022-11-29T23:40:31.691Z,20.50
2022-11-29T23:43:04.408Z,20.50
2022-11-29T23:45:38.597Z,20.50
2022-11-29T23:48:11.669Z,20.50
2022-11-29T23:50:45.582Z,20.40
2022-11-29T23:53:20.472Z,20.40
2022-11-29T23:56:04.520Z,20.40
2022-11-29T23:58:38.248Z,20.50
